Main page
METAR-TAF:

METAR-TAF

Airports :

Bamako–Modibo Keïta International Airport

Bamako, Mali

latitude: 12-32N, longitude: 007-57W, elevation: 380 m

Current weather observation

The report was made 21 minutes ago, at 10:00 UTC
Wind 16 kt from the North/Northeast
Temperature 29°C
Humidity 35%
Pressure 1016 hPa
Visibility 10 km or more
no clouds below 1500 m and no cumulonimbus

METAR: GABS 191000Z 03016KT CAVOK 29/12 Q1016 NOSIG

Time: 10:21 (10:21 UTC)

Forecast

The report was made 5 hours and 21 minutes ago, at 05:00 UTC
Forecast valid from 19 at 06 UTC to 20 at 12 UTC
Wind 8 kt from the North with gusts up to 20 kt
Visibility 10 km or more
no clouds below 1500 m and no cumulonimbus
Temporary
from 19 at 06 UTC to 19 at 11 UTC
Visibility: 4000 m
haze
Temporary
from 20 at 06 UTC to 20 at 11 UTC
Visibility: 4000 m
haze

TAF: GABS 190500Z 1906/2012 36008G20KT CAVOK TEMPO 1906/1911 4000 HZ TEMPO 2006/2011 4000 HZ

Weather observations and forecasts of more than 4000 airports (METAR and TAF reports).

The available stations are represented by yellow and red dots on the map.

Hover mouse over dot to see the name of the station.

Then click to see weather observations and forecasts.

To change the map : click on the green buttons with a black cross to zoom in, on the green button with a dash to zoom out, or on the green arrows for adjacent maps.


METAR-TAF: